createdAt,value
2022-08-05T00:00:50.303Z,25.06
2022-08-05T00:01:48.497Z,25.05
2022-08-05T00:02:50.610Z,25.02
2022-08-05T00:03:48.183Z,25.01
2022-08-05T00:07:58.864Z,24.95
2022-08-05T00:08:34.607Z,24.94
2022-08-05T00:09:23.269Z,24.92
2022-08-05T00:10:26.956Z,24.91
2022-08-05T00:11:35.026Z,24.92
2022-08-05T00:12:23.412Z,24.92
2022-08-05T00:13:38.405Z,24.91
2022-08-05T00:14:29.164Z,24.92
2022-08-05T00:15:55.476Z,24.92
2022-08-05T00:16:35.596Z,24.92
2022-08-05T00:17:23.817Z,24.92
2022-08-05T00:18:23.903Z,24.94
2022-08-05T00:19:24.975Z,24.94
2022-08-05T00:20:28.966Z,24.95
2022-08-05T00:21:24.183Z,24.94
2022-08-05T00:22:28.361Z,24.94
2022-08-05T00:23:44.565Z,24.94
2022-08-05T00:24:30.936Z,24.92
2022-08-05T00:25:24.497Z,24.91
2022-08-05T00:26:24.595Z,24.91
2022-08-05T00:27:35.659Z,24.88
2022-08-05T00:28:29.689Z,24.87
2022-08-05T00:29:25.359Z,24.88
2022-08-05T00:30:29.276Z,24.85
2022-08-05T00:31:53.806Z,24.83
2022-08-05T00:32:25.773Z,24.82
2022-08-05T00:34:56.731Z,24.83
2022-08-05T00:35:11.522Z,24.79
2022-08-05T00:35:25.274Z,24.79
2022-08-05T00:37:11.268Z,24.79
2022-08-05T00:37:25.754Z,24.79
2022-08-05T00:38:28.706Z,24.80
2022-08-05T00:39:25.691Z,24.77
2022-08-05T00:40:28.386Z,24.79
2022-08-05T00:41:25.780Z,24.79
2022-08-05T00:42:32.066Z,24.77
2022-08-05T00:43:25.976Z,24.77
2022-08-05T00:44:30.626Z,24.76
2022-08-05T00:45:37.797Z,24.76
2022-08-05T00:46:42.449Z,24.73
2022-08-05T00:47:26.409Z,24.73
2022-08-05T00:48:27.448Z,24.69
2022-08-05T00:49:26.472Z,24.69
2022-08-05T00:50:26.571Z,24.68
2022-08-05T00:51:51.840Z,24.64
2022-08-05T00:52:28.705Z,24.61
2022-08-05T00:54:01.110Z,24.60
2022-08-05T00:54:28.199Z,24.59
2022-08-05T00:55:42.468Z,24.60
2022-08-05T00:56:27.049Z,24.60
2022-08-05T00:57:31.754Z,24.59
2022-08-05T00:58:27.718Z,24.59
2022-08-05T00:59:27.290Z,24.59
2022-08-05T01:00:27.629Z,24.60
2022-08-05T01:01:42.540Z,24.61
2022-08-05T01:02:27.533Z,24.60
2022-08-05T01:03:31.110Z,24.59
2022-08-05T01:04:29.904Z,24.57
2022-08-05T01:05:27.907Z,24.59
2022-08-05T01:06:32.511Z,24.57
2022-08-05T01:07:28.027Z,24.56
2022-08-05T01:08:39.950Z,24.53
2022-08-05T01:09:30.463Z,24.53
2022-08-05T01:10:28.235Z,24.50
2022-08-05T01:11:33.474Z,24.49
2022-08-05T01:12:29.582Z,24.47
2022-08-05T01:13:58.684Z,24.47
2022-08-05T01:14:28.731Z,24.47
2022-08-05T01:15:35.335Z,24.44
2022-08-05T01:16:28.697Z,24.42
2022-08-05T01:17:28.787Z,24.44
2022-08-05T01:18:28.903Z,24.42
2022-08-05T01:19:36.831Z,24.41
2022-08-05T01:20:29.065Z,24.39
2022-08-05T01:21:38.333Z,24.39
2022-08-05T01:22:29.176Z,24.41
2022-08-05T01:23:34.851Z,24.39
2022-08-05T01:24:30.162Z,24.39
2022-08-05T01:25:41.124Z,24.41
2022-08-05T01:26:29.516Z,24.41
2022-08-05T01:27:29.592Z,24.41
2022-08-05T01:28:29.904Z,24.44
2022-08-05T01:29:30.711Z,24.45
2022-08-05T01:30:33.509Z,24.45
2022-08-05T01:31:29.955Z,24.49
2022-08-05T01:32:30.039Z,24.49
2022-08-05T01:33:35.157Z,24.49
2022-08-05T01:34:30.204Z,24.50
2022-08-05T01:35:50.755Z,24.49
2022-08-05T01:36:30.391Z,24.47
2022-08-05T01:37:30.963Z,24.49
2022-08-05T01:38:30.590Z,24.50
2022-08-05T01:39:36.898Z,24.52
2022-08-05T01:40:30.736Z,24.52
2022-08-05T01:41:30.781Z,24.50
2022-08-05T01:42:30.879Z,24.47
2022-08-05T01:43:31.008Z,24.47
2022-08-05T01:44:34.382Z,24.45
2022-08-05T01:45:34.735Z,24.44
2022-08-05T01:46:42.376Z,24.44
2022-08-05T01:47:38.716Z,24.42
2022-08-05T01:48:31.357Z,24.41
2022-08-05T01:50:01.612Z,24.42
2022-08-05T01:50:31.532Z,24.41
2022-08-05T01:51:31.570Z,24.39
2022-08-05T01:52:31.646Z,24.41
2022-08-05T01:53:54.566Z,24.39
2022-08-05T01:54:31.830Z,24.39
2022-08-05T01:55:31.937Z,24.38
2022-08-05T01:58:11.650Z,24.38
2022-08-05T01:58:45.752Z,24.39
2022-08-05T01:58:51.138Z,24.35
2022-08-05T01:59:50.760Z,24.34
2022-08-05T02:00:50.850Z,24.34
2022-08-05T02:01:50.990Z,24.31
2022-08-05T02:02:53.649Z,24.31
2022-08-05T02:03:51.080Z,24.27
2022-08-05T02:04:51.178Z,24.27
2022-08-05T02:05:51.297Z,24.24
2022-08-05T02:06:51.370Z,24.24
2022-08-05T02:08:00.297Z,24.23
2022-08-05T02:08:58.457Z,24.22
2022-08-05T02:09:51.718Z,24.20
2022-08-05T02:10:51.725Z,24.17
2022-08-05T02:11:52.626Z,24.17
2022-08-05T02:12:51.836Z,24.17
2022-08-05T02:13:53.865Z,24.16
2022-08-05T02:14:51.988Z,24.16
2022-08-05T02:15:52.082Z,24.16
2022-08-05T02:16:53.278Z,24.16
2022-08-05T02:18:33.297Z,24.16
2022-08-05T02:18:52.326Z,24.16
2022-08-05T02:19:52.351Z,24.16
2022-08-05T02:20:52.445Z,24.16
2022-08-05T02:21:52.548Z,24.16
2022-08-05T02:22:52.625Z,24.16
2022-08-05T02:23:52.713Z,24.14
2022-08-05T02:24:52.809Z,24.14
2022-08-05T02:25:52.906Z,24.14
2022-08-05T02:26:54.547Z,24.14
2022-08-05T02:27:59.519Z,24.16
2022-08-05T02:28:53.192Z,24.16
2022-08-05T02:29:59.828Z,24.16
2022-08-05T02:30:54.787Z,24.17
2022-08-05T02:31:53.393Z,24.19
2022-08-05T02:32:53.462Z,24.19
2022-08-05T02:33:57.745Z,24.17
2022-08-05T02:34:54.987Z,24.17
2022-08-05T02:35:58.881Z,24.19
2022-08-05T02:36:53.801Z,24.17
2022-08-05T02:37:54.257Z,24.19
2022-08-05T02:38:54.091Z,24.17
2022-08-05T02:39:54.142Z,24.17
2022-08-05T02:40:54.237Z,24.19
2022-08-05T02:42:00.673Z,24.19
2022-08-05T02:42:54.380Z,24.19
2022-08-05T02:44:06.112Z,24.19
2022-08-05T02:44:54.460Z,24.20
2022-08-05T02:45:54.505Z,24.17
2022-08-05T02:47:00.435Z,24.19
2022-08-05T02:48:06.639Z,24.20
2022-08-05T02:48:54.735Z,24.19
2022-08-05T02:49:54.814Z,24.19
2022-08-05T02:50:54.908Z,24.16
2022-08-05T02:52:02.854Z,24.13
2022-08-05T02:52:55.061Z,24.10
2022-08-05T02:53:55.109Z,24.07
2022-08-05T02:54:55.203Z,24.00
2022-08-05T02:55:59.915Z,23.98
2022-08-05T02:56:55.372Z,23.97
2022-08-05T02:58:09.882Z,23.97
2022-08-05T02:58:55.531Z,23.94
2022-08-05T02:59:55.625Z,23.94
2022-08-05T03:00:55.705Z,23.94
2022-08-05T03:01:55.779Z,23.95
2022-08-05T03:02:55.874Z,23.94
2022-08-05T03:04:03.181Z,23.94
2022-08-05T03:04:55.988Z,23.92
2022-08-05T03:06:55.333Z,23.94
2022-08-05T03:07:03.380Z,23.90
2022-08-05T03:08:07.131Z,23.94
2022-08-05T03:08:56.308Z,23.92
2022-08-05T03:09:56.382Z,23.94
2022-08-05T03:11:53.019Z,23.94
2022-08-05T03:12:00.385Z,23.92
2022-08-05T03:14:02.657Z,23.92
2022-08-05T03:14:59.068Z,23.92
2022-08-05T03:15:59.049Z,23.90
2022-08-05T03:16:59.234Z,23.90
2022-08-05T03:17:59.514Z,23.92
2022-08-05T03:18:59.288Z,23.94
2022-08-05T03:19:59.363Z,23.94
2022-08-05T03:20:59.451Z,23.94
2022-08-05T03:21:59.484Z,23.94
2022-08-05T03:22:59.567Z,23.95
2022-08-05T03:23:59.652Z,23.95
2022-08-05T03:25:02.312Z,23.97
2022-08-05T03:26:04.762Z,23.97
2022-08-05T03:26:59.979Z,23.97
2022-08-05T03:28:00.663Z,23.97
2022-08-05T03:29:00.100Z,23.97
2022-08-05T03:30:08.237Z,23.97
2022-08-05T03:31:00.231Z,23.94
2022-08-05T03:32:00.734Z,23.95
2022-08-05T03:33:00.872Z,23.94
2022-08-05T03:34:00.486Z,23.94
2022-08-05T03:35:00.664Z,23.92
2022-08-05T03:36:00.642Z,23.92
2022-08-05T03:37:00.714Z,23.92
2022-08-05T03:38:00.789Z,23.90
2022-08-05T03:39:00.896Z,23.89
2022-08-05T03:40:03.987Z,23.87
2022-08-05T03:41:08.431Z,23.87
2022-08-05T03:42:01.152Z,23.87
2022-08-05T03:43:01.511Z,23.87
2022-08-05T03:44:11.398Z,23.87
2022-08-05T03:45:01.733Z,23.86
2022-08-05T03:46:01.491Z,23.86
2022-08-05T03:47:03.529Z,23.86
2022-08-05T03:48:01.646Z,23.87
2022-08-05T03:49:01.891Z,23.87
2022-08-05T03:50:01.811Z,23.87
2022-08-05T03:52:37.321Z,23.87
2022-08-05T03:56:00.960Z,23.89
2022-08-05T03:56:27.802Z,23.85
2022-08-05T03:56:36.338Z,23.85
2022-08-05T03:57:41.521Z,23.86
2022-08-05T03:58:29.036Z,23.86
2022-08-05T03:59:25.497Z,23.86
2022-08-05T04:00:25.580Z,23.86
2022-08-05T04:01:25.753Z,23.86
2022-08-05T04:02:38.415Z,23.86
2022-08-05T04:03:28.422Z,23.85
2022-08-05T04:04:26.522Z,23.85
2022-08-05T04:05:25.949Z,23.85
2022-08-05T04:06:26.081Z,23.83
2022-08-05T04:07:26.112Z,23.85
2022-08-05T04:08:34.892Z,23.83
2022-08-05T04:09:26.807Z,23.83
2022-08-05T04:10:27.778Z,23.83
2022-08-05T04:11:42.553Z,23.82
2022-08-05T04:12:26.546Z,23.82
2022-08-05T04:13:27.715Z,23.83
2022-08-05T04:14:30.587Z,23.83
2022-08-05T04:15:27.960Z,23.82
2022-08-05T04:16:32.492Z,23.83
2022-08-05T04:17:55.483Z,23.83
2022-08-05T04:18:27.073Z,23.86
2022-08-05T04:19:27.126Z,23.86
2022-08-05T04:20:27.210Z,23.87
2022-08-05T04:22:08.319Z,23.89
2022-08-05T04:22:27.386Z,23.89
2022-08-05T04:23:57.125Z,23.89
2022-08-05T04:24:27.681Z,23.90
2022-08-05T04:25:58.027Z,23.92
2022-08-05T04:26:32.228Z,23.92
2022-08-05T04:27:33.039Z,23.92
2022-08-05T04:28:30.556Z,23.90
2022-08-05T04:29:27.897Z,23.90
2022-08-05T04:30:27.971Z,23.90
2022-08-05T04:31:38.445Z,23.90
2022-08-05T04:32:31.029Z,23.90
2022-08-05T04:33:54.510Z,23.90
2022-08-05T04:34:32.691Z,23.92
2022-08-05T04:36:11.244Z,23.92
2022-08-05T04:36:45.812Z,23.94
2022-08-05T04:38:00.996Z,23.94
2022-08-05T04:38:28.639Z,23.94
2022-08-05T04:39:28.736Z,23.97
2022-08-05T04:40:28.820Z,23.95
2022-08-05T04:41:36.842Z,23.97
2022-08-05T04:42:28.994Z,23.97
2022-08-05T04:43:29.067Z,23.97
2022-08-05T04:44:30.625Z,23.97
2022-08-05T04:45:47.812Z,23.97
2022-08-05T04:46:29.334Z,23.95
2022-08-05T04:47:29.409Z,23.97
2022-08-05T04:48:29.494Z,23.98
2022-08-05T04:49:39.053Z,23.94
2022-08-05T04:50:37.434Z,23.94
2022-08-05T04:51:30.595Z,23.92
2022-08-05T04:52:33.270Z,23.90
2022-08-05T04:53:33.351Z,23.89
2022-08-05T04:54:29.959Z,23.90
2022-08-05T04:56:14.625Z,23.89
2022-08-05T04:56:38.660Z,23.89
2022-08-05T04:57:30.187Z,23.87
2022-08-05T04:58:30.271Z,23.87
2022-08-05T04:59:38.990Z,23.87
2022-08-05T05:00:30.460Z,23.87
2022-08-05T05:01:33.576Z,23.87
2022-08-05T05:02:37.314Z,23.85
2022-08-05T05:03:32.552Z,23.86
2022-08-05T05:04:30.800Z,23.86
2022-08-05T05:05:30.832Z,23.87
2022-08-05T05:06:38.666Z,23.87
2022-08-05T05:07:32.144Z,23.89
2022-08-05T05:08:31.077Z,23.89
2022-08-05T05:09:31.231Z,23.89
2022-08-05T05:10:33.235Z,23.87
2022-08-05T05:11:52.788Z,23.86
2022-08-05T05:12:31.394Z,23.87
2022-08-05T05:13:32.344Z,23.87
2022-08-05T05:14:32.309Z,23.86
2022-08-05T05:15:57.577Z,23.87
2022-08-05T05:16:31.768Z,23.89
2022-08-05T05:17:56.278Z,23.90
2022-08-05T05:18:34.113Z,23.89
2022-08-05T05:19:37.013Z,23.89
2022-08-05T05:20:32.095Z,23.90
2022-08-05T05:21:33.135Z,23.90
2022-08-05T05:22:32.258Z,23.89
2022-08-05T05:24:01.863Z,23.89
2022-08-05T05:24:56.182Z,23.90
2022-08-05T05:25:40.519Z,23.92
2022-08-05T05:26:33.111Z,23.90
2022-08-05T05:27:45.122Z,23.94
2022-08-05T05:28:35.182Z,23.94
2022-08-05T05:30:03.638Z,23.95
2022-08-05T05:30:33.603Z,23.97
2022-08-05T05:32:12.689Z,23.97
2022-08-05T05:33:16.868Z,23.95
2022-08-05T05:34:12.687Z,23.97
2022-08-05T05:35:12.811Z,23.95
2022-08-05T05:36:12.839Z,23.95
2022-08-05T05:37:12.912Z,23.95
2022-08-05T05:38:14.331Z,23.95
2022-08-05T05:39:13.143Z,23.97
2022-08-05T05:40:13.161Z,23.97
2022-08-05T05:41:13.220Z,23.98
2022-08-05T05:42:13.280Z,23.97
2022-08-05T05:43:13.385Z,24.00
2022-08-05T05:44:36.045Z,24.01
2022-08-05T05:45:16.229Z,24.01
2022-08-05T05:46:17.638Z,24.01
2022-08-05T05:47:22.204Z,24.01
2022-08-05T05:48:16.092Z,24.01
2022-08-05T05:49:22.793Z,24.02
2022-08-05T05:50:16.329Z,24.02
2022-08-05T05:51:15.699Z,24.01
2022-08-05T05:52:25.499Z,24.01
2022-08-05T05:53:21.328Z,24.01
2022-08-05T05:54:14.230Z,24.00
2022-08-05T05:55:14.345Z,24.00
2022-08-05T05:56:14.405Z,24.00
2022-08-05T05:57:19.252Z,24.00
2022-08-05T05:58:14.563Z,23.97
2022-08-05T05:59:14.632Z,23.97
2022-08-05T06:00:14.745Z,23.94
2022-08-05T06:01:15.237Z,23.92
2022-08-05T06:02:14.930Z,23.89
2022-08-05T06:03:40.182Z,23.87
2022-08-05T06:04:15.150Z,23.85
2022-08-05T06:05:16.729Z,23.83
2022-08-05T06:06:15.200Z,23.85
2022-08-05T06:07:15.262Z,23.83
2022-08-05T06:08:15.336Z,23.85
2022-08-05T06:09:16.696Z,23.86
2022-08-05T06:10:15.502Z,23.89
2022-08-05T06:11:15.576Z,23.87
2022-08-05T06:12:15.689Z,23.90
2022-08-05T06:13:15.728Z,23.92
2022-08-05T06:14:15.803Z,23.95
2022-08-05T06:15:23.714Z,23.97
2022-08-05T06:16:29.110Z,24.00
2022-08-05T06:17:21.964Z,24.01
2022-08-05T06:18:16.119Z,24.02
2022-08-05T06:19:32.980Z,24.04
2022-08-05T06:20:18.905Z,24.05
2022-08-05T06:21:18.445Z,24.08
2022-08-05T06:22:16.484Z,24.08
2022-08-05T06:23:16.553Z,24.08
2022-08-05T06:24:16.617Z,24.12
2022-08-05T06:25:59.207Z,24.13
2022-08-05T06:26:21.593Z,24.14
2022-08-05T06:28:09.240Z,24.14
2022-08-05T06:28:21.417Z,24.17
2022-08-05T06:29:25.410Z,24.17
2022-08-05T06:30:20.223Z,24.19
2022-08-05T06:31:17.885Z,24.20
2022-08-05T06:32:26.066Z,24.22
2022-08-05T06:33:19.323Z,24.23
2022-08-05T06:34:17.406Z,24.23
2022-08-05T06:36:03.702Z,24.23
2022-08-05T06:36:17.591Z,24.23
2022-08-05T06:37:17.682Z,24.24
2022-08-05T06:38:17.761Z,24.23
2022-08-05T06:39:17.888Z,24.24
2022-08-05T06:40:21.427Z,24.24
2022-08-05T06:41:18.055Z,24.24
2022-08-05T06:42:18.111Z,24.26
2022-08-05T06:43:59.441Z,24.27
2022-08-05T06:44:18.247Z,24.29
2022-08-05T06:45:21.310Z,24.31
2022-08-05T06:46:18.459Z,24.31
2022-08-05T06:47:29.918Z,24.31
2022-08-05T06:48:52.945Z,24.31
2022-08-05T06:49:18.804Z,24.31
2022-08-05T06:50:18.788Z,24.32
2022-08-05T06:51:23.866Z,24.34
2022-08-05T06:52:37.174Z,24.35
2022-08-05T06:53:22.322Z,24.35
2022-08-05T06:54:19.389Z,24.37
2022-08-05T06:55:19.191Z,24.35
2022-08-05T06:56:26.442Z,24.37
2022-08-05T06:57:57.318Z,24.37
2022-08-05T06:58:29.893Z,24.38
2022-08-05T06:59:19.496Z,24.38
2022-08-05T07:00:24.464Z,24.38
2022-08-05T07:01:20.968Z,24.39
2022-08-05T07:02:22.729Z,24.41
2022-08-05T07:03:19.831Z,24.41
2022-08-05T07:04:19.911Z,24.42
2022-08-05T07:05:22.309Z,24.45
2022-08-05T07:06:20.627Z,24.44
2022-08-05T07:07:24.082Z,24.47
2022-08-05T07:08:20.223Z,24.49
2022-08-05T07:09:20.323Z,24.50
2022-08-05T07:10:20.435Z,24.52
2022-08-05T07:11:22.282Z,24.53
2022-08-05T07:12:20.570Z,24.54
2022-08-05T07:13:59.314Z,24.54
2022-08-05T07:14:29.538Z,24.56
2022-08-05T07:15:34.549Z,24.56
2022-08-05T07:17:57.373Z,24.57
2022-08-05T07:18:09.316Z,24.59
2022-08-05T07:18:24.170Z,24.59
2022-08-05T07:19:44.375Z,24.60
2022-08-05T07:20:37.282Z,24.60
2022-08-05T07:21:25.782Z,24.63
2022-08-05T07:22:21.472Z,24.63
2022-08-05T07:23:26.077Z,24.64
2022-08-05T07:24:21.572Z,24.68
2022-08-05T07:25:54.970Z,24.68
2022-08-05T07:26:24.953Z,24.69
2022-08-05T07:27:21.998Z,24.69
2022-08-05T07:28:21.867Z,24.71
2022-08-05T07:30:22.375Z,24.73
2022-08-05T07:30:33.733Z,24.75
2022-08-05T07:31:40.929Z,24.75
2022-08-05T07:32:26.034Z,24.76
2022-08-05T07:33:36.420Z,24.76
2022-08-05T07:34:26.236Z,24.76
2022-08-05T07:36:01.558Z,24.76
2022-08-05T07:36:22.550Z,24.76
2022-08-05T07:37:22.800Z,24.76
2022-08-05T07:38:34.099Z,24.79
2022-08-05T07:39:37.007Z,24.77
2022-08-05T07:40:31.529Z,24.77
2022-08-05T07:42:07.807Z,24.77
2022-08-05T07:42:33.598Z,24.79
2022-08-05T07:43:23.046Z,24.82
2022-08-05T07:44:23.132Z,24.82
2022-08-05T07:45:44.070Z,24.83
2022-08-05T07:46:25.420Z,24.83
2022-08-05T07:47:25.848Z,24.87
2022-08-05T07:49:02.709Z,24.88
2022-08-05T07:49:23.590Z,24.90
2022-08-05T07:50:28.806Z,24.91
2022-08-05T07:51:37.309Z,24.92
2022-08-05T07:52:23.999Z,24.94
2022-08-05T07:53:23.866Z,24.97
2022-08-05T07:54:26.429Z,24.98
2022-08-05T07:56:04.877Z,25.01
2022-08-05T07:57:01.271Z,25.02
2022-08-05T07:57:51.235Z,25.06
2022-08-05T07:58:57.374Z,25.07
2022-08-05T07:59:38.656Z,25.09
2022-08-05T08:00:24.463Z,25.12
2022-08-05T08:01:24.568Z,25.15
2022-08-05T08:02:26.739Z,25.16
2022-08-05T08:03:24.699Z,25.20
2022-08-05T08:04:38.132Z,25.22
2022-08-05T08:05:26.364Z,25.27
2022-08-05T08:06:28.202Z,25.30
2022-08-05T08:07:25.349Z,25.34
2022-08-05T08:08:26.042Z,25.38
2022-08-05T08:09:25.155Z,25.42
2022-08-05T08:10:25.211Z,25.44
2022-08-05T08:11:27.385Z,25.47
2022-08-05T08:12:37.517Z,25.52
2022-08-05T08:13:28.842Z,25.54
2022-08-05T08:14:25.558Z,25.57
2022-08-05T08:15:37.316Z,25.59
2022-08-05T08:16:51.214Z,25.62
2022-08-05T08:17:27.918Z,25.64
2022-08-05T08:18:25.896Z,25.67
2022-08-05T08:20:43.012Z,25.67
2022-08-05T08:21:03.001Z,25.69
2022-08-05T08:21:26.194Z,25.71
2022-08-05T08:22:27.009Z,25.72
2022-08-05T08:24:01.004Z,25.75
2022-08-05T08:24:41.501Z,25.77
2022-08-05T08:26:00.311Z,25.77
2022-08-05T08:26:29.898Z,25.80
2022-08-05T08:27:26.735Z,25.80
2022-08-05T08:28:35.618Z,25.82
2022-08-05T08:30:06.675Z,25.82
2022-08-05T08:30:47.288Z,25.82
2022-08-05T08:31:27.053Z,25.82
2022-08-05T08:32:28.041Z,25.82
2022-08-05T08:33:27.309Z,25.83
2022-08-05T08:34:30.211Z,25.86
2022-08-05T08:35:27.233Z,25.86
2022-08-05T08:36:40.247Z,25.84
2022-08-05T08:37:27.863Z,25.87
2022-08-05T08:38:36.129Z,25.89
2022-08-05T08:39:27.670Z,25.90
2022-08-05T08:40:27.643Z,25.91
2022-08-05T08:41:52.497Z,25.93
2022-08-05T08:42:34.140Z,25.91
2022-08-05T08:45:23.974Z,25.93
2022-08-05T08:45:30.788Z,25.93
2022-08-05T08:45:36.218Z,25.93
2022-08-05T08:46:36.359Z,25.93
2022-08-05T08:48:06.002Z,25.93
2022-08-05T08:49:02.903Z,25.93
2022-08-05T08:50:22.442Z,25.93
2022-08-05T08:51:03.650Z,25.93
2022-08-05T08:52:03.248Z,25.94
2022-08-05T08:52:36.760Z,25.94
2022-08-05T08:53:36.837Z,25.97
2022-08-05T08:54:36.930Z,25.97
2022-08-05T08:56:04.929Z,25.97
2022-08-05T08:56:37.154Z,25.98
2022-08-05T08:57:48.182Z,25.97
2022-08-05T08:58:47.661Z,25.98
2022-08-05T08:59:37.418Z,25.99
2022-08-05T09:00:37.513Z,26.01
2022-08-05T09:01:37.579Z,26.01
2022-08-05T09:02:37.645Z,26.01
2022-08-05T09:03:40.401Z,25.99
2022-08-05T09:04:58.598Z,25.98
2022-08-05T09:05:38.209Z,25.99
2022-08-05T09:06:37.992Z,25.98
2022-08-05T09:07:40.123Z,25.99
2022-08-05T09:08:40.305Z,25.98
2022-08-05T09:09:38.184Z,25.99
2022-08-05T09:10:38.265Z,25.98
2022-08-05T09:11:51.580Z,25.98
2022-08-05T09:12:38.382Z,25.97
2022-08-05T09:14:01.068Z,25.94
2022-08-05T09:15:05.609Z,25.97
2022-08-05T09:15:38.640Z,25.97
2022-08-05T09:16:38.744Z,25.94
2022-08-05T09:17:43.144Z,25.94
2022-08-05T09:18:42.798Z,25.97
2022-08-05T09:19:55.034Z,25.97
2022-08-05T09:20:39.046Z,25.94
2022-08-05T09:22:21.829Z,25.97
2022-08-05T09:22:39.649Z,25.97
2022-08-05T09:23:43.590Z,25.94
2022-08-05T09:24:39.382Z,25.94
2022-08-05T09:26:01.831Z,25.94
2022-08-05T09:26:39.581Z,25.93
2022-08-05T09:28:04.703Z,25.91
2022-08-05T09:28:39.767Z,25.91
2022-08-05T09:29:47.676Z,25.91
2022-08-05T09:30:40.765Z,25.93
2022-08-05T09:32:41.580Z,25.93
2022-08-05T09:32:53.546Z,25.93
2022-08-05T09:33:40.098Z,25.93
2022-08-05T09:34:40.170Z,25.93
2022-08-05T09:35:40.302Z,25.91
2022-08-05T09:36:54.402Z,25.91
2022-08-05T09:38:16.773Z,25.89
2022-08-05T09:38:40.522Z,25.89
2022-08-05T09:39:45.057Z,25.87
2022-08-05T09:40:40.656Z,25.89
2022-08-05T09:41:40.809Z,25.87
2022-08-05T09:42:40.838Z,25.87
2022-08-05T09:43:42.178Z,25.87
2022-08-05T09:44:40.988Z,25.86
2022-08-05T09:46:06.357Z,25.86
2022-08-05T09:46:51.831Z,25.86
2022-08-05T09:47:55.248Z,25.86
2022-08-05T09:48:41.342Z,25.86
2022-08-05T09:50:01.610Z,25.84
2022-08-05T09:50:44.039Z,25.83
2022-08-05T09:51:41.617Z,25.83
2022-08-05T09:52:45.173Z,25.82
2022-08-05T09:53:53.853Z,25.82
2022-08-05T09:54:41.808Z,25.82
2022-08-05T09:55:56.142Z,25.82
2022-08-05T09:56:42.024Z,25.82
2022-08-05T09:57:43.238Z,25.83
2022-08-05T09:58:42.452Z,25.83
2022-08-05T09:59:42.243Z,25.84
2022-08-05T10:00:42.341Z,25.86
2022-08-05T10:01:45.798Z,25.86
2022-08-05T10:02:42.550Z,25.86
2022-08-05T10:03:58.529Z,25.87
2022-08-05T10:04:42.667Z,25.87
2022-08-05T10:05:42.758Z,25.87
2022-08-05T10:06:54.854Z,25.90
2022-08-05T10:08:10.915Z,25.90
2022-08-05T10:08:43.040Z,25.90
2022-08-05T10:09:45.105Z,25.90
2022-08-05T10:10:43.166Z,25.91
2022-08-05T10:11:43.214Z,25.90
2022-08-05T10:12:49.186Z,25.90
2022-08-05T10:13:47.436Z,25.90
2022-08-05T10:14:43.436Z,25.89
2022-08-05T10:15:43.551Z,25.89
2022-08-05T10:16:52.414Z,25.89
2022-08-05T10:17:54.453Z,25.89
2022-08-05T10:18:43.788Z,25.89
2022-08-05T10:20:03.148Z,25.89
2022-08-05T10:20:44.065Z,25.89
2022-08-05T10:21:43.990Z,25.89
2022-08-05T10:22:50.968Z,25.89
2022-08-05T10:23:58.865Z,25.87
2022-08-05T10:24:46.032Z,25.89
2022-08-05T10:25:44.302Z,25.87
2022-08-05T10:26:51.474Z,25.89
2022-08-05T10:28:09.496Z,25.89
2022-08-05T10:28:44.922Z,25.89
2022-08-05T10:30:41.155Z,25.89
2022-08-05T10:33:01.273Z,25.91
2022-08-05T10:33:09.338Z,25.90
2022-08-05T10:34:07.868Z,25.90
2022-08-05T10:35:04.526Z,25.90
2022-08-05T10:36:04.600Z,25.91
2022-08-05T10:37:04.703Z,25.89
2022-08-05T10:38:04.735Z,25.91
2022-08-05T10:39:05.321Z,25.90
2022-08-05T10:40:17.904Z,25.90
2022-08-05T10:41:05.087Z,25.93
2022-08-05T10:42:05.105Z,25.94
2022-08-05T10:43:05.197Z,25.93
2022-08-05T10:44:05.654Z,25.93
2022-08-05T10:45:21.466Z,25.97
2022-08-05T10:46:06.292Z,25.97
2022-08-05T10:47:05.512Z,25.98
2022-08-05T10:48:30.071Z,26.01
2022-08-05T10:49:10.103Z,25.99
2022-08-05T10:50:31.961Z,26.02
2022-08-05T10:51:05.851Z,26.04
2022-08-05T10:52:10.571Z,26.05
2022-08-05T10:53:06.018Z,26.06
2022-08-05T10:54:28.694Z,26.08
2022-08-05T10:55:06.190Z,26.08
2022-08-05T10:56:21.495Z,26.11
2022-08-05T10:57:06.364Z,26.12
2022-08-05T10:58:06.424Z,26.12
2022-08-05T10:59:12.818Z,26.15
2022-08-05T11:00:18.202Z,26.15
2022-08-05T11:01:06.692Z,26.17
2022-08-05T11:02:06.838Z,26.17
2022-08-05T11:03:24.625Z,26.17
2022-08-05T11:04:07.041Z,26.18
2022-08-05T11:05:07.001Z,26.18
2022-08-05T11:06:08.736Z,26.17
2022-08-05T11:07:07.169Z,26.18
2022-08-05T11:08:33.770Z,26.18
2022-08-05T11:09:07.363Z,26.21
2022-08-05T11:10:10.017Z,26.22
2022-08-05T11:11:14.593Z,26.24
2022-08-05T11:12:07.592Z,26.25
2022-08-05T11:13:07.671Z,26.28
2022-08-05T11:14:07.761Z,26.28
2022-08-05T11:15:11.519Z,26.31
2022-08-05T11:16:07.917Z,26.32
2022-08-05T11:17:57.253Z,26.35
2022-08-05T11:18:09.821Z,26.35
2022-08-05T11:20:16.742Z,26.37
2022-08-05T11:20:22.574Z,26.39
2022-08-05T11:21:11.734Z,26.42
2022-08-05T11:22:08.416Z,26.44
2022-08-05T11:23:08.917Z,26.46
2022-08-05T11:24:29.863Z,26.52
2022-08-05T11:26:02.908Z,26.54
2022-08-05T11:26:10.872Z,26.58
2022-08-05T11:27:08.791Z,26.59
2022-08-05T11:28:08.896Z,26.58
2022-08-05T11:29:13.385Z,26.59
2022-08-05T11:30:09.043Z,26.59
2022-08-05T11:31:09.129Z,26.61
2022-08-05T11:32:09.208Z,26.61
2022-08-05T11:33:21.008Z,26.61
2022-08-05T11:34:09.372Z,26.62
2022-08-05T11:35:09.457Z,26.62
2022-08-05T11:36:09.548Z,26.62
2022-08-05T11:38:29.526Z,26.64
2022-08-05T11:38:46.069Z,26.64
2022-08-05T11:39:09.938Z,26.64
2022-08-05T11:40:09.891Z,26.65
2022-08-05T11:41:34.350Z,26.65
2022-08-05T11:42:10.045Z,26.65
2022-08-05T11:43:10.131Z,26.65
2022-08-05T11:44:10.262Z,26.65
2022-08-05T11:45:14.485Z,26.68
2022-08-05T11:46:32.503Z,26.68
2022-08-05T11:47:15.223Z,26.69
2022-08-05T11:48:11.582Z,26.69
2022-08-05T11:49:10.651Z,26.69
2022-08-05T11:50:14.362Z,26.72
2022-08-05T11:51:10.948Z,26.72
2022-08-05T11:52:11.620Z,26.73
2022-08-05T11:53:10.939Z,26.74
2022-08-05T11:54:11.039Z,26.77
2022-08-05T11:55:11.120Z,26.79
2022-08-05T11:56:11.282Z,26.81
2022-08-05T11:57:26.069Z,26.81
2022-08-05T11:58:12.174Z,26.81
2022-08-05T11:59:13.691Z,26.83
2022-08-05T12:00:11.604Z,26.83
2022-08-05T12:01:11.625Z,26.83
2022-08-05T12:02:12.110Z,26.83
2022-08-05T12:03:11.828Z,26.84
2022-08-05T12:04:11.889Z,26.86
2022-08-05T12:05:18.024Z,26.87
2022-08-05T12:06:11.993Z,26.89
2022-08-05T12:07:12.071Z,26.92
2022-08-05T12:08:18.148Z,26.94
2022-08-05T12:09:19.798Z,26.95
2022-08-05T12:10:12.400Z,26.95
2022-08-05T12:11:20.355Z,26.96
2022-08-05T12:12:12.433Z,27.01
2022-08-05T12:13:17.368Z,27.04
2022-08-05T12:14:12.572Z,27.06
2022-08-05T12:15:16.642Z,27.11
2022-08-05T12:16:14.786Z,27.14
2022-08-05T12:18:00.695Z,27.20
2022-08-05T12:18:14.843Z,27.21
2022-08-05T12:20:25.400Z,27.26
2022-08-05T12:20:33.213Z,27.29
2022-08-05T12:21:13.104Z,27.29
2022-08-05T12:22:13.177Z,27.31
2022-08-05T12:23:13.265Z,27.33
2022-08-05T12:24:13.352Z,27.35
2022-08-05T12:25:14.227Z,27.36
2022-08-05T12:26:13.495Z,27.39
2022-08-05T12:27:21.622Z,27.42
2022-08-05T12:28:15.677Z,27.46
2022-08-05T12:29:16.327Z,27.48
2022-08-05T12:30:15.459Z,27.48
2022-08-05T12:31:23.203Z,27.51
2022-08-05T12:32:13.950Z,27.50
2022-08-05T12:33:36.088Z,27.51
2022-08-05T12:34:20.663Z,27.53
2022-08-05T12:35:14.206Z,27.53
2022-08-05T12:36:14.268Z,27.57
2022-08-05T12:37:22.803Z,27.57
2022-08-05T12:38:15.178Z,27.59
2022-08-05T12:39:14.578Z,27.59
2022-08-05T12:40:20.885Z,27.62
2022-08-05T12:41:14.698Z,27.61
2022-08-05T12:42:15.342Z,27.66
2022-08-05T12:43:21.025Z,27.66
2022-08-05T12:44:28.530Z,27.67
2022-08-05T12:45:14.999Z,27.67
2022-08-05T12:46:15.087Z,27.69
2022-08-05T12:47:17.067Z,27.70
2022-08-05T12:48:26.776Z,27.71
2022-08-05T12:49:15.341Z,27.71
2022-08-05T12:50:15.414Z,27.73
2022-08-05T12:52:10.642Z,27.76
2022-08-05T12:52:24.025Z,27.79
2022-08-05T12:53:15.688Z,27.82
2022-08-05T12:54:23.164Z,27.84
2022-08-05T12:55:15.845Z,27.86
2022-08-05T12:56:34.156Z,27.91
2022-08-05T12:57:15.966Z,27.92
2022-08-05T12:58:48.634Z,27.95
2022-08-05T12:59:20.825Z,27.98
2022-08-05T13:02:01.081Z,28.01
2022-08-05T13:02:11.091Z,28.04
2022-08-05T13:02:16.523Z,28.06